COS weather

City of Colorado Springs Municipal Airport
Colorado Springs, Colorado, United States

Public forecast

Using degrees Fahrenheit for public forecast. Weather courtesy of forecast.io.

Current aviation weather report (METAR) for City of Colorado Springs Municipal Airport

Retrieved 2019/10/19 19:54 UTC (52 minutes ago):

KCOS 191954Z 16011KT 10SM FEW080 FEW180 15/M09 A2988 RMK AO2 SLP089 T01501089

Aviation forecast (TAF) for City of Colorado Springs Municipal Airport

Retrieved 2019/10/19 18:46 UTC (2 hours ago):

TAF KCOS 191744Z 1918/2018 17012KT P6SM SKC FM192200 19014G25KT P6SM FEW090 FM200200 07008KT P6SM SKC FM200400 15008KT P6SM FEW200 FM200900 32015G25KT P6SM SCT200 FM201500 32025G40KT P6SM FEW200